Time;durP1;ratioP1;P1;durP2;ratioP2;P2;SDS_P1;SDS_P2;PMS_P1;PMS_P2;Temp;Humidity;BMP_temperature;BMP_pressure;BME280_temperature;BME280_humidity;BME280_pressure;Samples;Min_cycle;Max_cycle;Signal;HPM_P1;HPM_P2
2022/05/29 00:00:36;;;;;;;;;15.00;10.67;;;26.75;97409.10;;;;117448;1190;24846;-53
2022/05/29 00:03:07;;;;;;;;;8.75;7.50;;;26.74;97399.48;;;;117454;1190;25488;-51
2022/05/29 00:05:37;;;;;;;;;10.50;9.00;;;26.73;97403.99;;;;117386;1190;25784;-53
2022/05/29 00:08:11;;;;;;;;;12.25;7.75;;;26.73;97399.60;;;;117448;1190;25075;-53
2022/05/29 00:10:44;;;;;;;;;12.25;10.75;;;26.74;97401.86;;;;117384;1190;25982;-49
2022/05/29 00:13:14;;;;;;;;;13.50;8.50;;;26.75;97411.98;;;;117409;1191;25635;-50
2022/05/29 00:15:49;;;;;;;;;9.75;9.75;;;26.74;97407.27;;;;117443;1190;25102;-52
2022/05/29 00:18:20;;;;;;;;;17.50;12.25;;;26.75;97401.48;;;;117541;1190;25559;-51
2022/05/29 00:20:57;;;;;;;;;12.50;10.25;;;26.76;97395.66;;;;117443;1190;25190;-53
2022/05/29 00:23:26;;;;;;;;;14.33;9.00;;;26.76;97392.37;;;;117373;1189;25737;-52
2022/05/29 00:25:56;;;;;;;;;8.75;8.75;;;26.75;97396.98;;;;117382;1190;26145;-53
2022/05/29 00:28:24;;;;;;;;;15.00;12.75;;;26.74;97396.51;;;;117406;1189;26328;-51
2022/05/29 00:30:54;;;;;;;;;11.33;8.00;;;26.73;97395.05;;;;117384;1190;25574;-52
2022/05/29 00:33:24;;;;;;;;;8.50;8.00;;;26.71;97396.10;;;;117384;1190;25817;-54
2022/05/29 00:35:59;;;;;;;;;9.75;9.00;;;26.71;97401.12;;;;117410;1190;25199;-51
2022/05/29 00:38:34;;;;;;;;;8.00;8.00;;;26.72;97395.19;;;;117491;1190;25767;-49
2022/05/29 00:41:17;;;;;;;;;10.75;8.00;;;26.74;97393.16;;;;117477;1190;26837;-52
2022/05/29 00:44:14;;;;;;;;;8.50;8.50;;;26.77;97389.83;;;;117464;1189;25409;-51
2022/05/29 00:47:11;;;;;;;;;10.67;8.67;;;26.83;97388.14;;;;117394;1187;25372;-50
2022/05/29 00:49:45;;;;;;;;;8.50;8.50;;;26.82;97390.30;;;;117507;1190;25540;-53
2022/05/29 00:52:18;;;;;;;;;9.00;9.00;;;26.80;97383.69;;;;117430;1190;25621;-52
2022/05/29 00:55:00;;;;;;;;;10.00;8.67;;;26.79;97378.02;;;;117381;1190;25555;-50
2022/05/29 00:57:40;;;;;;;;;9.00;4.50;;;26.79;97373.95;;;;117419;1190;24871;-51
2022/05/29 01:00:22;;;;;;;;;8.75;8.25;;;26.80;97364.95;;;;117436;1190;26216;-53
2022/05/29 01:02:55;;;;;;;;;7.75;7.00;;;26.80;97359.98;;;;117500;1190;24956;-54
2022/05/29 01:05:31;;;;;;;;;10.33;7.33;;;26.81;97362.65;;;;117452;1190;25849;-54
2022/05/29 01:08:24;;;;;;;;;5.00;3.00;;;26.79;97367.63;;;;117411;1189;25014;-54
2022/05/29 01:11:06;;;;;;;;;9.75;7.00;;;26.85;97363.02;;;;117510;1189;26236;-51
2022/05/29 01:14:19;;;;;;;;;8.25;5.00;;;26.88;97367.77;;;;117466;1190;25584;-49
2022/05/29 01:17:17;;;;;;;;;8.00;7.00;;;26.89;97367.13;;;;117016;1194;25044;-50
2022/05/29 01:20:11;;;;;;;;;6.75;6.75;;;26.95;97368.94;;;;117422;1190;25324;-50
2022/05/29 01:23:05;;;;;;;;;10.00;7.00;;;26.92;97369.77;;;;117468;1190;25204;-51
2022/05/29 01:25:57;;;;;;;;;9.67;5.00;;;26.86;97358.91;;;;117446;1189;25017;-50
2022/05/29 01:28:51;;;;;;;;;6.67;6.67;;;26.85;97356.96;;;;117508;1190;25290;-53
2022/05/29 01:31:40;;;;;;;;;6.75;4.25;;;26.83;97351.58;;;;117531;1190;24792;-51
2022/05/29 01:34:32;;;;;;;;;7.00;7.00;;;26.80;97349.45;;;;117454;1189;25767;-48
2022/05/29 01:37:22;;;;;;;;;11.50;8.25;;;26.80;97351.98;;;;117421;1190;25068;-49
2022/05/29 01:40:09;;;;;;;;;4.67;4.67;;;26.79;97349.42;;;;117389;1191;25092;-52
2022/05/29 01:42:57;;;;;;;;;5.00;5.00;;;26.78;97349.55;;;;117460;1190;25522;-53
2022/05/29 01:45:53;;;;;;;;;5.75;5.00;;;26.79;97346.33;;;;117447;1190;25575;-51
2022/05/29 01:48:45;;;;;;;;;6.75;6.25;;;26.81;97345.11;;;;117429;1190;25039;-53
2022/05/29 01:51:21;;;;;;;;;6.50;6.25;;;26.82;97344.80;;;;117447;1189;26274;-54
2022/05/29 01:54:06;;;;;;;;;6.75;6.75;;;26.79;97347.60;;;;117458;1191;26704;-54
2022/05/29 01:56:42;;;;;;;;;5.25;5.25;;;26.80;97356.24;;;;117352;1190;25789;-50
2022/05/29 01:59:29;;;;;;;;;7.25;6.75;;;26.78;97358.21;;;;117474;1190;26177;-50
2022/05/29 02:02:07;;;;;;;;;8.50;8.00;;;26.81;97360.91;;;;117361;1190;25887;-53
2022/05/29 02:04:43;;;;;;;;;8.00;7.00;;;26.79;97363.33;;;;117402;1190;25521;-52
2022/05/29 02:10:07;;;;;;;;;5.75;5.00;;;26.76;97358.90;;;;117365;1190;25078;-52
2022/05/29 02:12:41;;;;;;;;;6.00;5.00;;;26.74;97360.33;;;;117225;1190;25890;-50
2022/05/29 02:15:19;;;;;;;;;9.75;7.75;;;26.77;97355.27;;;;117455;1190;26128;-52
2022/05/29 02:17:57;;;;;;;;;5.75;3.50;;;26.77;97350.71;;;;117430;1188;26092;-55
2022/05/29 02:20:32;;;;;;;;;7.33;4.33;;;26.78;97346.35;;;;117388;1189;24929;-53
2022/05/29 02:23:13;;;;;;;;;5.50;5.00;;;26.78;97354.23;;;;117428;1190;25845;-51
2022/05/29 02:25:41;;;;;;;;;6.00;4.75;;;26.77;97357.56;;;;117483;1190;25500;-52
2022/05/29 02:28:21;;;;;;;;;6.00;4.50;;;26.77;97358.89;;;;117367;1190;25179;-51
2022/05/29 02:31:01;;;;;;;;;8.00;4.25;;;26.74;97357.56;;;;117373;1190;25638;-51
2022/05/29 02:34:04;;;;;;;;;6.50;4.00;;;26.73;97360.59;;;;117485;1189;25421;-52
2022/05/29 02:36:49;;;;;;;;;7.67;6.33;;;26.76;97360.26;;;;117437;1191;24796;-50
2022/05/29 02:39:40;;;;;;;;;3.50;3.50;;;26.74;97355.67;;;;117460;1188;26122;-56
2022/05/29 02:42:24;;;;;;;;;5.25;5.25;;;26.72;97349.52;;;;117460;1190;24931;-55
2022/05/29 02:45:14;;;;;;;;;4.00;3.50;;;26.71;97346.59;;;;117405;1190;25174;-53
2022/05/29 02:48:15;;;;;;;;;5.50;5.50;;;26.69;97349.27;;;;117431;1190;25296;-55
2022/05/29 02:50:57;;;;;;;;;7.00;4.67;;;26.70;97350.20;;;;117412;1190;25134;-55
2022/05/29 02:53:28;;;;;;;;;5.25;5.00;;;26.69;97346.64;;;;117445;1190;24959;-52
2022/05/29 02:56:04;;;;;;;;;4.25;4.25;;;26.68;97345.59;;;;117505;1190;25241;-56
2022/05/29 02:58:43;;;;;;;;;3.67;3.67;;;26.70;97345.70;;;;117386;1190;25787;-51
2022/05/29 03:01:38;;;;;;;;;4.67;4.67;;;26.70;97347.10;;;;117440;1189;25642;-52
2022/05/29 03:04:42;;;;;;;;;3.00;3.00;;;26.70;97348.20;;;;117405;1190;25589;-56
2022/05/29 03:07:25;;;;;;;;;5.67;5.00;;;26.71;97346.50;;;;117473;1190;24786;-51
2022/05/29 03:10:18;;;;;;;;;5.75;4.75;;;26.71;97345.27;;;;117466;1190;25678;-56
2022/05/29 03:13:08;;;;;;;;;4.25;4.00;;;26.71;97344.70;;;;117460;1191;26298;-49
2022/05/29 03:15:52;;;;;;;;;4.75;4.00;;;26.68;97349.70;;;;117408;1190;25508;-54
2022/05/29 03:18:34;;;;;;;;;6.50;4.00;;;26.69;97353.01;;;;117496;1191;25191;-52
2022/05/29 03:21:38;;;;;;;;;6.33;4.00;;;26.70;97356.88;;;;117494;1188;25957;-51
2022/05/29 03:24:28;;;;;;;;;5.33;5.33;;;26.75;97352.23;;;;117397;1190;25041;-55
2022/05/29 03:27:04;;;;;;;;;6.00;4.00;;;26.76;97350.75;;;;117468;1190;24924;-52
2022/05/29 03:30:01;;;;;;;;;5.00;3.00;;;26.74;97346.48;;;;117525;1190;25626;-48
2022/05/29 03:32:43;;;;;;;;;6.00;4.50;;;26.78;97352.20;;;;117456;1191;25833;-54
2022/05/29 03:35:17;;;;;;;;;6.75;4.00;;;26.79;97355.05;;;;117393;1190;25590;-53
2022/05/29 03:37:48;;;;;;;;;5.50;5.50;;;26.75;97359.63;;;;117449;1189;25112;-55
2022/05/29 03:40:19;;;;;;;;;3.25;3.25;;;26.72;97363.98;;;;117414;1190;25733;-52
2022/05/29 03:42:53;;;;;;;;;5.50;5.50;;;26.70;97373.43;;;;117434;1190;25381;-51
2022/05/29 03:45:27;;;;;;;;;5.00;4.00;;;26.70;97377.92;;;;117455;1189;25453;-51
2022/05/29 03:47:55;;;;;;;;;2.00;2.00;;;26.70;97373.39;;;;117498;1190;25564;-50
2022/05/29 03:50:29;;;;;;;;;6.25;4.25;;;26.70;97374.63;;;;117435;1190;25220;-51
2022/05/29 03:53:00;;;;;;;;;7.00;3.00;;;26.70;97381.91;;;;117441;1189;26338;-49
2022/05/29 03:55:32;;;;;;;;;4.50;4.50;;;26.69;97381.70;;;;117426;1191;25399;-50
2022/05/29 03:58:00;;;;;;;;;5.00;3.50;;;26.69;97374.67;;;;117452;1190;26298;-51
2022/05/29 04:00:30;;;;;;;;;7.50;3.00;;;26.68;97370.09;;;;117477;1187;25406;-51
2022/05/29 04:03:02;;;;;;;;;3.75;3.25;;;26.69;97372.88;;;;117387;1190;25064;-50
2022/05/29 04:05:33;;;;;;;;;5.50;4.50;;;26.68;97373.48;;;;117570;1189;25361;-50
2022/05/29 04:13:57;;;;;;;;;5.25;4.50;;;26.70;97373.29;;;;117366;1190;26374;-51
2022/05/29 04:16:28;;;;;;;;;3.25;3.25;;;26.68;97375.63;;;;117384;1190;25288;-53
2022/05/29 04:19:01;;;;;;;;;4.50;4.50;;;26.68;97377.95;;;;117373;1190;24949;-50
2022/05/29 04:21:33;;;;;;;;;2.00;2.00;;;26.67;97377.31;;;;117440;1190;25628;-55
2022/05/29 04:24:04;;;;;;;;;3.25;3.25;;;26.67;97377.16;;;;117483;1190;25637;-53
2022/05/29 04:26:33;;;;;;;;;3.75;3.75;;;26.66;97378.45;;;;117563;1190;25296;-55
2022/05/29 04:29:05;;;;;;;;;4.00;4.00;;;26.67;97373.30;;;;117501;1190;24953;-49
2022/05/29 04:32:59;;;;;;;;;3.25;3.25;;;26.68;97366.84;;;;117447;1190;25447;-53
2022/05/29 04:34:40;;;;;;;;;5.50;3.50;;;26.76;97362.01;;;;117470;1189;24964;-57
2022/05/29 04:37:13;;;;;;;;;3.00;2.33;;;26.77;97365.13;;;;117443;1191;25766;-57
2022/05/29 04:39:45;;;;;;;;;1.33;1.33;;;26.74;97362.33;;;;117509;1190;25087;-54
2022/05/29 04:42:17;;;;;;;;;11.00;4.00;;;26.74;97356.88;;;;117436;1190;26120;-53
2022/05/29 04:44:48;;;;;;;;;3.75;3.00;;;26.74;97352.58;;;;117474;1189;26125;-55
2022/05/29 04:47:21;;;;;;;;;4.00;4.00;;;26.73;97342.73;;;;117469;1190;25526;-48
2022/05/29 04:49:54;;;;;;;;;3.00;2.00;;;26.74;97340.61;;;;117460;1190;25212;-53
2022/05/29 04:52:22;;;;;;;;;3.00;3.00;;;26.74;97339.52;;;;117446;1187;26145;-51
2022/05/29 04:54:51;;;;;;;;;5.00;3.50;;;26.72;97343.38;;;;117447;1190;25208;-50
2022/05/29 04:57:26;;;;;;;;;2.50;2.50;;;26.70;97345.39;;;;117468;1190;25322;-54
2022/05/29 04:59:55;;;;;;;;;3.25;3.00;;;26.70;97342.30;;;;117458;1190;29351;-52
2022/05/29 05:02:29;;;;;;;;;2.25;2.25;;;26.68;97339.80;;;;117393;1190;25446;-55
2022/05/29 05:05:03;;;;;;;;;5.50;3.25;;;26.65;97333.47;;;;117371;1190;24996;-53
2022/05/29 05:07:35;;;;;;;;;1.67;1.67;;;26.64;97328.77;;;;117671;1190;25471;-52
2022/05/29 05:10:12;;;;;;;;;2.00;2.00;;;26.69;97328.80;;;;117475;1189;25185;-53
2022/05/29 05:12:45;;;;;;;;;3.00;3.00;;;26.69;97327.73;;;;117359;1191;25020;-52
2022/05/29 05:15:17;;;;;;;;;3.50;3.00;;;26.66;97323.18;;;;117470;1189;25021;-50
2022/05/29 05:17:49;;;;;;;;;3.00;2.50;;;26.67;97323.61;;;;117439;1189;25140;-54
2022/05/29 05:20:22;;;;;;;;;3.00;3.00;;;26.65;97319.66;;;;117511;1190;25744;-53
2022/05/29 05:22:52;;;;;;;;;3.25;3.25;;;26.66;97321.40;;;;117414;1189;25140;-53
2022/05/29 05:25:26;;;;;;;;;1.67;1.67;;;26.66;97317.91;;;;117439;1190;25439;-53
2022/05/29 05:28:15;;;;;;;;;3.00;3.00;;;26.66;97313.06;;;;117421;1191;25020;-52
2022/05/29 05:30:47;;;;;;;;;4.33;4.00;;;26.70;97317.23;;;;117417;1190;25658;-55
2022/05/29 05:33:25;;;;;;;;;4.00;3.00;;;26.73;97321.55;;;;117425;1190;24734;-50
2022/05/29 05:35:56;;;;;;;;;4.25;2.75;;;26.72;97323.69;;;;117460;1188;25191;-53
2022/05/29 05:38:30;;;;;;;;;3.00;3.00;;;26.69;97328.85;;;;117434;1188;25540;-53
2022/05/29 05:41:03;;;;;;;;;6.50;3.50;;;26.66;97328.20;;;;117506;1190;25477;-51
2022/05/29 05:43:33;;;;;;;;;5.50;3.50;;;26.66;97322.98;;;;117560;1190;25620;-51
2022/05/29 05:46:09;;;;;;;;;5.00;4.25;;;26.68;97324.79;;;;117481;1190;25464;-50
2022/05/29 05:48:41;;;;;;;;;4.33;3.67;;;26.60;97324.44;;;;117583;1190;26142;-51
2022/05/29 05:51:29;;;;;;;;;8.00;6.33;;;26.59;97318.03;;;;117504;1190;25776;-51
2022/05/29 05:54:02;;;;;;;;;8.00;5.00;;;26.60;97316.19;;;;117408;1190;25078;-52
2022/05/29 05:56:30;;;;;;;;;9.50;7.00;;;26.58;97321.03;;;;117502;1190;24944;-53
2022/05/29 05:59:00;;;;;;;;;9.75;8.25;;;26.54;97319.08;;;;117345;1189;24735;-52
2022/05/29 06:01:30;;;;;;;;;17.00;15.33;;;26.49;97317.83;;;;117383;1189;25431;-53
2022/05/29 06:03:59;;;;;;;;;10.50;10.25;;;26.44;97314.29;;;;117327;1189;26484;-53
2022/05/29 06:06:27;;;;;;;;;15.75;10.75;;;26.42;97312.68;;;;117374;1189;25235;-53
2022/05/29 06:08:57;;;;;;;;;11.25;7.25;;;26.37;97315.13;;;;117390;1190;25261;-49
2022/05/29 06:11:26;;;;;;;;;15.25;11.00;;;26.32;97314.75;;;;117405;1190;25279;-51
2022/05/29 06:13:55;;;;;;;;;14.25;8.50;;;26.28;97310.36;;;;117419;1190;26098;-49
2022/05/29 06:16:23;;;;;;;;;12.00;9.00;;;26.27;97307.77;;;;117526;1189;25143;-49
2022/05/29 06:18:51;;;;;;;;;12.00;8.00;;;26.25;97304.67;;;;117403;1189;25299;-50
2022/05/29 06:21:22;;;;;;;;;6.00;4.25;;;26.22;97301.77;;;;117414;1187;25405;-50
2022/05/29 06:23:52;;;;;;;;;12.75;7.50;;;26.21;97301.83;;;;117369;1190;25870;-51
2022/05/29 06:26:20;;;;;;;;;11.25;8.00;;;26.21;97300.21;;;;117375;1187;24998;-47
2022/05/29 06:28:48;;;;;;;;;9.50;6.50;;;26.20;97303.34;;;;117374;1190;24924;-50
2022/05/29 06:31:17;;;;;;;;;11.00;8.00;;;26.17;97306.68;;;;117399;1189;25445;-50
2022/05/29 06:33:45;;;;;;;;;11.00;7.00;;;26.17;97307.60;;;;117401;1190;24943;-50
2022/05/29 06:36:23;;;;;;;;;7.75;7.75;;;26.16;97304.73;;;;117430;1190;26036;-49
2022/05/29 06:38:53;;;;;;;;;10.33;10.33;;;26.16;97292.80;;;;117360;1190;26367;-51
2022/05/29 06:41:23;;;;;;;;;7.00;5.50;;;26.17;97278.16;;;;117437;1190;25118;-50
2022/05/29 06:43:52;;;;;;;;;9.50;7.75;;;26.16;97283.10;;;;117342;1190;26371;-53
2022/05/29 06:46:23;;;;;;;;;9.33;7.33;;;26.15;97289.88;;;;117452;1190;26110;-50
2022/05/29 06:48:54;;;;;;;;;9.75;8.25;;;26.14;97289.57;;;;117426;1188;25719;-49
2022/05/29 06:51:24;;;;;;;;;9.75;9.00;;;26.14;97281.45;;;;117596;1190;25228;-50
2022/05/29 06:54:00;;;;;;;;;11.00;8.00;;;26.17;97268.56;;;;117497;1190;24878;-48
2022/05/29 06:56:31;;;;;;;;;9.33;7.67;;;26.18;97264.59;;;;117580;1189;24987;-51
2022/05/29 06:59:01;;;;;;;;;7.25;6.00;;;26.21;97268.83;;;;117519;1190;25391;-51
2022/05/29 07:07:17;;;;;;;;;11.75;7.75;;;26.15;97277.15;;;;117611;1190;25123;-53
2022/05/29 07:09:45;;;;;;;;;8.00;6.50;;;26.15;97286.23;;;;117493;1189;25836;-51
2022/05/29 07:12:13;;;;;;;;;11.50;7.75;;;26.13;97287.19;;;;117576;1190;25387;-52
2022/05/29 07:15:06;;;;;;;;;7.67;7.67;;;26.14;97283.29;;;;117508;1189;25666;-52
2022/05/29 07:17:37;;;;;;;;;8.75;7.00;;;26.16;97278.14;;;;117468;1189;25539;-50
2022/05/29 07:20:06;;;;;;;;;9.00;6.50;;;26.16;97277.67;;;;117477;1189;25247;-51
2022/05/29 07:22:35;;;;;;;;;10.25;8.50;;;26.14;97284.09;;;;117561;1190;25548;-50
2022/05/29 07:25:11;;;;;;;;;8.75;6.50;;;26.12;97294.73;;;;117488;1189;25141;-51
2022/05/29 07:27:42;;;;;;;;;10.67;7.00;;;26.13;97298.96;;;;117551;1188;25999;-50
2022/05/29 07:30:12;;;;;;;;;4.33;4.00;;;26.14;97293.52;;;;117468;1189;25818;-52
2022/05/29 07:32:44;;;;;;;;;8.67;7.00;;;26.16;97296.88;;;;117485;1187;25849;-52
2022/05/29 07:35:16;;;;;;;;;8.75;5.25;;;26.17;97300.02;;;;117625;1190;24937;-51
2022/05/29 07:37:44;;;;;;;;;6.75;5.50;;;26.25;97297.49;;;;117769;1191;25864;-50
2022/05/29 07:40:14;;;;;;;;;9.50;5.25;;;26.33;97294.55;;;;117896;1191;26127;-53
2022/05/29 07:45:37;;;;;;;;;8.50;6.50;;;26.55;97284.73;;;;117425;1190;25014;-52
2022/05/29 07:48:09;;;;;;;;;4.00;4.00;;;26.51;97288.71;;;;117495;1191;25496;-49
2022/05/29 07:50:38;;;;;;;;;5.75;5.75;;;26.52;97289.57;;;;117474;1190;26282;-52
2022/05/29 07:53:08;;;;;;;;;7.00;7.00;;;26.54;97294.13;;;;117405;1191;25199;-55
2022/05/29 07:55:39;;;;;;;;;8.75;7.00;;;26.52;97293.48;;;;117359;1190;25167;-51
2022/05/29 07:58:08;;;;;;;;;5.00;3.50;;;26.49;97296.36;;;;117429;1190;25680;-52
2022/05/29 08:00:40;;;;;;;;;3.50;3.50;;;26.47;97291.48;;;;117518;1189;26016;-50
2022/05/29 08:03:10;;;;;;;;;7.00;7.00;;;26.48;97283.48;;;;117513;1190;25614;-53
2022/05/29 08:05:43;;;;;;;;;7.75;7.25;;;26.50;97277.90;;;;117571;1190;26387;-48
2022/05/29 08:08:14;;;;;;;;;5.50;5.50;;;26.56;97276.86;;;;117443;1191;25378;-49
2022/05/29 08:10:45;;;;;;;;;6.50;5.50;;;26.59;97280.97;;;;117462;1190;25161;-53
2022/05/29 08:13:17;;;;;;;;;11.75;7.00;;;26.60;97281.88;;;;117425;1189;25774;-51
2022/05/29 08:15:47;;;;;;;;;4.50;4.00;;;26.61;97277.71;;;;117404;1191;25681;-52
2022/05/29 08:18:19;;;;;;;;;7.33;6.33;;;26.59;97270.63;;;;117457;1189;25955;-50
2022/05/29 08:20:51;;;;;;;;;5.33;5.00;;;26.59;97275.98;;;;117398;1189;26103;-49
2022/05/29 08:23:26;;;;;;;;;4.25;4.25;;;26.57;97286.56;;;;117506;1190;25233;-54
2022/05/29 08:31:32;;;;;;;;;7.75;7.00;;;26.52;97293.65;;;;117346;1191;25570;-54
2022/05/29 08:34:02;;;;;;;;;4.25;2.75;;;26.50;97291.27;;;;117422;1189;24805;-55
2022/05/29 08:36:35;;;;;;;;;9.00;6.25;;;26.50;97294.27;;;;117387;1190;25830;-52
2022/05/29 08:39:05;;;;;;;;;10.25;7.00;;;26.49;97292.88;;;;117352;1191;25136;-53
2022/05/29 08:41:46;;;;;;;;;6.00;4.25;;;26.48;97286.20;;;;117334;1190;25101;-55
2022/05/29 08:44:50;;;;;;;;;6.25;4.25;;;26.48;97288.00;;;;117457;1189;24924;-53
2022/05/29 08:47:28;;;;;;;;;6.00;6.00;;;26.52;97290.79;;;;117483;1190;25157;-53
2022/05/29 08:50:06;;;;;;;;;5.67;4.33;;;26.54;97286.80;;;;117399;1189;25556;-54
2022/05/29 08:52:38;;;;;;;;;4.25;4.00;;;26.55;97280.95;;;;117511;1191;24831;-54
2022/05/29 08:55:26;;;;;;;;;6.67;5.67;;;26.52;97273.70;;;;117511;1189;24994;-49
2022/05/29 08:58:18;;;;;;;;;6.00;6.00;;;26.50;97268.76;;;;117600;1191;24781;-54
2022/05/29 09:01:16;;;;;;;;;9.75;7.50;;;26.56;97277.83;;;;117519;1189;25094;-52
2022/05/29 09:03:59;;;;;;;;;5.75;5.50;;;26.60;97281.40;;;;117394;1191;25215;-51
2022/05/29 09:06:32;;;;;;;;;9.00;7.75;;;26.64;97284.38;;;;117475;1190;25314;-49
2022/05/29 09:09:05;;;;;;;;;8.00;7.00;;;26.61;97294.96;;;;117497;1189;25334;-53
2022/05/29 09:11:51;;;;;;;;;7.75;6.00;;;26.59;97293.52;;;;117547;1190;24819;-53
2022/05/29 09:14:26;;;;;;;;;6.50;3.75;;;26.58;97287.09;;;;117542;1189;25094;-50
2022/05/29 09:17:04;;;;;;;;;6.00;5.67;;;26.59;97283.45;;;;117435;1191;26114;-53
2022/05/29 09:19:40;;;;;;;;;7.33;6.00;;;26.61;97288.92;;;;117464;1190;25183;-50
2022/05/29 09:22:28;;;;;;;;;6.75;5.50;;;26.61;97304.50;;;;117537;1190;24949;-51
2022/05/29 09:25:01;;;;;;;;;6.00;6.00;;;26.65;97306.16;;;;117581;1190;25225;-50
2022/05/29 09:27:35;;;;;;;;;5.75;4.50;;;26.67;97309.10;;;;117369;1190;26336;-50
2022/05/29 09:30:05;;;;;;;;;4.00;4.00;;;26.66;97316.25;;;;117529;1190;25562;-53
2022/05/29 09:32:36;;;;;;;;;5.75;5.75;;;26.66;97329.19;;;;117616;1190;25652;-52
2022/05/29 09:35:43;;;;;;;;;7.25;6.75;;;26.67;97334.81;;;;117419;1190;25208;-53
2022/05/29 09:38:34;;;;;;;;;7.00;5.00;;;26.77;97342.14;;;;117380;1191;25479;-49
2022/05/29 09:41:14;;;;;;;;;11.25;5.50;;;26.78;97334.02;;;;117442;1190;25083;-49
2022/05/29 09:44:05;;;;;;;;;6.00;5.00;;;26.74;97324.15;;;;117488;1191;25453;-49
2022/05/29 09:46:48;;;;;;;;;7.50;5.25;;;26.70;97321.31;;;;117369;1191;25386;-52
2022/05/29 09:52:13;;;;;;;;;9.25;6.75;;;26.72;97319.65;;;;117385;1191;25802;-50
2022/05/29 09:54:54;;;;;;;;;6.75;3.50;;;26.70;97317.19;;;;117391;1189;25526;-50
2022/05/29 09:58:16;;;;;;;;;6.75;6.50;;;26.68;97299.41;;;;117357;1189;25085;-51
2022/05/29 10:01:04;;;;;;;;;6.75;6.75;;;26.80;97281.34;;;;117043;1193;24751;-48
2022/05/29 10:03:46;;;;;;;;;7.25;7.25;;;26.84;97267.66;;;;117452;1190;25376;-50
2022/05/29 10:06:30;;;;;;;;;2.33;2.00;;;26.80;97257.02;;;;117500;1190;25503;-52
2022/05/29 10:09:11;;;;;;;;;7.00;6.00;;;26.78;97261.62;;;;117392;1191;26006;-51
2022/05/29 10:11:43;;;;;;;;;5.67;5.67;;;26.77;97269.75;;;;117443;1190;25970;-50
2022/05/29 10:14:18;;;;;;;;;7.75;6.75;;;26.79;97261.77;;;;117458;1191;25540;-50
2022/05/29 10:16:49;;;;;;;;;6.00;3.00;;;26.78;97240.81;;;;117406;1190;26429;-49
2022/05/29 10:19:51;;;;;;;;;9.00;8.25;;;26.78;97225.46;;;;117417;1190;25357;-51
2022/05/29 10:22:33;;;;;;;;;8.25;6.75;;;26.83;97225.65;;;;117445;1190;25805;-52
2022/05/29 10:25:15;;;;;;;;;7.33;5.33;;;26.89;97229.70;;;;117295;1190;25250;-50
2022/05/29 10:27:46;;;;;;;;;9.00;7.00;;;26.90;97237.46;;;;117423;1191;25359;-48
2022/05/29 10:31:05;;;;;;;;;9.50;6.50;;;26.88;97245.19;;;;117371;1189;25879;-50
2022/05/29 10:33:35;;;;;;;;;7.67;7.67;;;26.92;97253.27;;;;117041;1193;24915;-51
2022/05/29 10:36:08;;;;;;;;;8.50;7.50;;;26.91;97256.67;;;;117090;1193;25976;-49
2022/05/29 10:38:43;;;;;;;;;6.25;5.50;;;26.88;97260.39;;;;117287;1190;24910;-48
2022/05/29 10:41:11;;;;;;;;;5.50;5.50;;;26.86;97268.73;;;;117397;1189;25045;-51
2022/05/29 10:43:51;;;;;;;;;7.25;5.25;;;26.86;97277.31;;;;117501;1189;25273;-49
2022/05/29 10:46:19;;;;;;;;;7.50;7.00;;;26.83;97277.92;;;;117432;1190;25231;-51
2022/05/29 10:49:07;;;;;;;;;7.50;7.50;;;26.83;97285.13;;;;117390;1189;26116;-52
2022/05/29 10:51:38;;;;;;;;;13.00;7.25;;;26.80;97280.80;;;;117500;1191;24752;-51
2022/05/29 10:54:31;;;;;;;;;7.75;5.75;;;26.81;97276.54;;;;117506;1189;25662;-50
2022/05/29 10:57:29;;;;;;;;;6.00;4.25;;;26.84;97268.64;;;;117478;1190;25669;-54
2022/05/29 11:00:11;;;;;;;;;13.50;8.75;;;26.83;97259.94;;;;117447;1189;25138;-51
2022/05/29 11:03:24;;;;;;;;;11.00;8.33;;;26.83;97262.49;;;;117362;1190;26197;-51
2022/05/29 11:06:01;;;;;;;;;7.00;5.67;;;26.85;97264.84;;;;117406;1189;25462;-51
2022/05/29 11:08:51;;;;;;;;;8.00;8.00;;;26.83;97268.55;;;;117406;1189;25104;-51
2022/05/29 11:11:50;;;;;;;;;5.50;5.25;;;26.83;97267.91;;;;117506;1190;25800;-47
2022/05/29 11:14:42;;;;;;;;;8.50;7.50;;;26.84;97263.42;;;;117445;1190;26743;-48
2022/05/29 11:17:23;;;;;;;;;8.75;6.25;;;26.84;97260.80;;;;117512;1191;25120;-49
2022/05/29 11:20:29;;;;;;;;;7.67;5.00;;;26.85;97264.17;;;;117494;1191;25547;-52
2022/05/29 11:23:22;;;;;;;;;6.75;5.75;;;26.85;97262.25;;;;117511;1190;26666;-49
2022/05/29 11:26:15;;;;;;;;;7.75;6.75;;;26.87;97253.93;;;;117379;1190;26143;-49
2022/05/29 11:29:24;;;;;;;;;8.50;5.75;;;26.94;97251.21;;;;117432;1189;25482;-49
2022/05/29 11:32:31;;;;;;;;;8.75;5.75;;;27.02;97240.69;;;;117206;1191;25686;-49
2022/05/29 11:35:27;;;;;;;;;8.00;7.00;;;27.02;97223.79;;;;117585;1189;25509;-48
2022/05/29 11:38:05;;;;;;;;;6.50;5.00;;;27.03;97215.63;;;;117511;1190;24988;-50
2022/05/29 11:40:55;;;;;;;;;7.00;7.00;;;27.00;97224.23;;;;117447;1190;25190;-51
2022/05/29 11:44:03;;;;;;;;;6.50;5.75;;;26.97;97228.05;;;;117463;1190;25921;-53
2022/05/29 11:52:59;;;;;;;;;8.00;6.75;;;26.94;97222.69;;;;117453;1191;25757;-47
2022/05/29 11:55:43;;;;;;;;;7.50;7.50;;;26.91;97223.30;;;;117499;1191;25632;-52
2022/05/29 11:58:53;;;;;;;;;7.75;5.25;;;26.91;97218.23;;;;117509;1191;24859;-50
2022/05/29 12:01:43;;;;;;;;;7.50;7.00;;;26.97;97215.95;;;;117104;1191;26422;-48
2022/05/29 12:04:32;;;;;;;;;5.25;5.25;;;27.00;97212.88;;;;117469;1189;25084;-53
2022/05/29 12:07:13;;;;;;;;;7.00;5.50;;;26.99;97207.36;;;;117440;1191;26481;-54
2022/05/29 12:09:57;;;;;;;;;10.25;7.25;;;26.99;97211.45;;;;117453;1189;25415;-51
2022/05/29 12:12:32;;;;;;;;;7.00;6.25;;;27.01;97208.89;;;;117470;1190;25971;-53
2022/05/29 12:15:07;;;;;;;;;7.25;6.50;;;27.02;97207.52;;;;117289;1191;25092;-49
2022/05/29 12:17:39;;;;;;;;;8.25;7.00;;;27.03;97203.21;;;;117453;1191;25028;-49
2022/05/29 12:20:47;;;;;;;;;5.00;5.00;;;27.03;97204.36;;;;117538;1189;25175;-49
2022/05/29 12:23:24;;;;;;;;;7.75;6.75;;;27.04;97199.23;;;;117491;1191;26266;-48
2022/05/29 12:26:01;;;;;;;;;12.33;9.00;;;27.02;97201.40;;;;117515;1190;25652;-47
2022/05/29 12:28:45;;;;;;;;;11.67;8.00;;;27.03;97198.98;;;;117213;1191;24918;-53
2022/05/29 12:31:39;;;;;;;;;9.33;9.33;;;27.06;97184.11;;;;117501;1191;26030;-54
2022/05/29 12:34:16;;;;;;;;;5.00;5.00;;;27.09;97175.45;;;;117535;1191;25747;-52
2022/05/29 12:37:09;;;;;;;;;5.00;5.00;;;27.07;97173.73;;;;117524;1189;25479;-52
2022/05/29 12:39:53;;;;;;;;;7.50;6.50;;;27.11;97163.35;;;;117461;1190;24862;-51
2022/05/29 12:42:45;;;;;;;;;10.00;9.00;;;27.11;97159.77;;;;117434;1190;25234;-53
2022/05/29 12:45:29;;;;;;;;;8.67;8.67;;;27.12;97165.44;;;;117494;1189;25957;-51
2022/05/29 12:48:37;;;;;;;;;8.25;8.25;;;27.15;97169.97;;;;117388;1189;24899;-51
2022/05/29 12:51:32;;;;;;;;;9.00;7.00;;;27.17;97170.65;;;;117338;1189;26032;-50
2022/05/29 12:54:45;;;;;;;;;5.00;5.00;;;27.14;97166.52;;;;117513;1191;25723;-52
2022/05/29 12:57:24;;;;;;;;;10.00;6.50;;;27.21;97172.35;;;;116789;1196;25286;-49
2022/05/29 12:59:53;;;;;;;;;8.33;6.33;;;27.21;97174.49;;;;116844;1195;25153;-51
2022/05/29 13:02:47;;;;;;;;;6.67;6.67;;;27.17;97175.23;;;;117281;1190;24841;-51
2022/05/29 13:05:52;;;;;;;;;8.50;7.75;;;27.16;97176.73;;;;117366;1189;25201;-50
2022/05/29 13:08:38;;;;;;;;;7.75;7.00;;;27.15;97172.88;;;;117427;1190;25615;-48
2022/05/29 13:11:08;;;;;;;;;7.33;7.33;;;27.11;97168.65;;;;117502;1190;25673;-51
2022/05/29 13:13:43;;;;;;;;;7.00;5.25;;;27.11;97156.01;;;;117176;1190;25541;-50
2022/05/29 13:16:38;;;;;;;;;9.33;8.33;;;27.12;97141.20;;;;117499;1191;25634;-49
2022/05/29 13:19:21;;;;;;;;;9.50;7.50;;;27.19;97113.48;;;;117353;1190;26017;-49
2022/05/29 13:22:04;;;;;;;;;8.25;8.25;;;27.20;97097.47;;;;117301;1191;25605;-49
2022/05/29 13:24:40;;;;;;;;;10.50;8.00;;;27.22;97100.80;;;;117547;1189;25063;-51
2022/05/29 13:27:13;;;;;;;;;8.00;6.00;;;27.23;97101.04;;;;117520;1191;26187;-50
2022/05/29 13:29:53;;;;;;;;;10.67;8.00;;;27.21;97100.02;;;;117385;1191;25788;-51
2022/05/29 13:32:27;;;;;;;;;8.50;6.00;;;27.18;97109.58;;;;117536;1190;25245;-48
2022/05/29 13:35:04;;;;;;;;;7.67;7.00;;;27.21;97109.79;;;;117552;1190;25290;-48
2022/05/29 13:37:32;;;;;;;;;7.00;5.50;;;27.19;97103.23;;;;117456;1190;25186;-48